Time;durP1;ratioP1;P1;durP2;ratioP2;P2;SDS_P1;SDS_P2;PMS_P1;PMS_P2;Temp;Humidity;BMP_temperature;BMP_pressure;BME280_temperature;BME280_humidity;BME280_pressure;Samples;Min_cycle;Max_cycle;Signal;HPM_P1;HPM_P2
2022/01/04 00:01:13;;;;;;;6.10;5.47;;;8.40;86.80;;;;;;5054395;28;20029;-58
2022/01/04 00:03:40;;;;;;;6.80;5.97;;;8.40;86.90;;;;;;5040296;28;20503;-58
2022/01/04 00:06:07;;;;;;;6.22;5.28;;;8.40;87.00;;;;;;5054587;28;20051;-57
2022/01/04 00:08:33;;;;;;;6.60;5.40;;;8.30;87.00;;;;;;5054328;28;20075;-58
2022/01/04 00:11:08;;;;;;;6.22;5.63;;;8.30;87.10;;;;;;5054099;28;20021;-58
2022/01/04 00:13:34;;;;;;;6.15;5.20;;;8.40;87.30;;;;;;5050794;28;20056;-58
2022/01/04 00:16:02;;;;;;;6.80;5.75;;;8.30;87.30;;;;;;5045753;28;20033;-58
2022/01/04 00:18:28;;;;;;;6.05;5.05;;;8.40;87.50;;;;;;5047546;28;20469;-58
2022/01/04 00:20:54;;;;;;;6.10;5.50;;;8.30;87.30;;;;;;5053659;28;20045;-55
2022/01/04 00:23:19;;;;;;;10.38;5.93;;;8.30;87.30;;;;;;5053943;28;20441;-55
2022/01/04 00:25:45;;;;;;;10.25;6.50;;;8.30;87.50;;;;;;5054076;28;20104;-57
2022/01/04 00:28:12;;;;;;;6.65;5.72;;;8.30;87.60;;;;;;5053844;28;20100;-56
2022/01/04 00:30:39;;;;;;;9.75;5.53;;;8.30;87.50;;;;;;5051527;28;20105;-58
2022/01/04 00:33:07;;;;;;;6.05;5.05;;;8.30;87.50;;;;;;5037373;28;20033;-58
2022/01/04 00:35:33;;;;;;;7.53;5.53;;;8.30;87.70;;;;;;5049477;28;20021;-57
2022/01/04 00:37:59;;;;;;;6.60;5.40;;;8.30;87.80;;;;;;5053660;28;20036;-58
2022/01/04 00:40:25;;;;;;;7.47;5.82;;;8.30;87.70;;;;;;5053892;28;20499;-58
2022/01/04 00:42:52;;;;;;;8.30;6.43;;;8.40;87.90;;;;;;5053479;28;20061;-58
2022/01/04 00:45:18;;;;;;;6.85;5.78;;;8.40;87.90;;;;;;5053730;28;20025;-57
2022/01/04 00:50:34;;;;;;;6.45;5.53;;;8.40;87.90;;;;;;5048614;28;20492;-58
2022/01/04 00:53:00;;;;;;;7.20;5.50;;;8.40;87.90;;;;;;5053361;28;20029;-57
2022/01/04 00:55:27;;;;;;;6.55;5.72;;;8.40;87.80;;;;;;5053378;28;20097;-57
2022/01/04 00:57:53;;;;;;;7.53;5.43;;;8.40;87.90;;;;;;5053593;28;20492;-58
2022/01/04 01:00:20;;;;;;;7.22;6.10;;;8.40;88.00;;;;;;5053197;28;20103;-58
2022/01/04 01:02:46;;;;;;;6.72;5.68;;;8.40;88.00;;;;;;5044371;28;20108;-57
2022/01/04 01:05:13;;;;;;;6.18;4.97;;;8.40;88.00;;;;;;5043536;28;20026;-57
2022/01/04 01:07:39;;;;;;;7.50;5.55;;;8.40;87.80;;;;;;5053397;28;20078;-58
2022/01/04 01:12:34;;;;;;;7.35;5.78;;;8.40;87.80;;;;;;5052945;28;20449;-56
2022/01/04 01:14:59;;;;;;;7.40;6.15;;;8.50;88.00;;;;;;5053047;28;20093;-55
2022/01/04 01:17:25;;;;;;;4.85;4.35;;;8.50;88.10;;;;;;5053014;28;20021;-58
2022/01/04 01:19:51;;;;;;;7.50;5.30;;;8.50;87.90;;;;;;5046276;28;20385;-58
2022/01/04 01:22:17;;;;;;;7.50;6.03;;;8.40;87.70;;;;;;5044971;28;20053;-57
2022/01/04 01:24:43;;;;;;;5.57;4.80;;;8.40;87.70;;;;;;5046495;28;20108;-58
2022/01/04 01:27:08;;;;;;;6.00;5.10;;;8.40;87.70;;;;;;5047876;28;20029;-58
2022/01/04 01:29:34;;;;;;;6.68;5.43;;;8.40;87.60;;;;;;5036959;28;20062;-56
2022/01/04 01:32:00;;;;;;;7.55;5.65;;;8.40;87.70;;;;;;5051889;28;20029;-58
2022/01/04 01:34:26;;;;;;;5.68;4.47;;;8.40;87.70;;;;;;5052846;28;20551;-58
2022/01/04 01:36:52;;;;;;;5.32;4.43;;;8.40;87.80;;;;;;5052576;28;20029;-57
2022/01/04 01:39:18;;;;;;;6.07;4.63;;;8.40;87.70;;;;;;5052123;28;20036;-58
2022/01/04 01:41:43;;;;;;;7.03;4.82;;;8.40;87.70;;;;;;5052715;28;20028;-58
2022/01/04 01:44:09;;;;;;;5.45;4.90;;;8.40;87.90;;;;;;5052601;28;20036;-57
2022/01/04 01:46:34;;;;;;;6.20;4.75;;;8.40;87.90;;;;;;5048541;28;20025;-57
2022/01/04 01:49:00;;;;;;;6.25;5.30;;;8.40;87.90;;;;;;5041847;28;20048;-58
2022/01/04 01:51:30;;;;;;;6.47;4.95;;;8.40;87.90;;;;;;5050456;28;20032;-59
2022/01/04 01:53:56;;;;;;;5.90;4.55;;;8.40;87.80;;;;;;5052785;28;20033;-59
2022/01/04 01:56:21;;;;;;;5.13;4.30;;;8.40;87.70;;;;;;5043960;28;20105;-58
2022/01/04 01:58:47;;;;;;;6.97;4.10;;;8.40;87.60;;;;;;5049466;28;20029;-58
2022/01/04 02:01:13;;;;;;;5.82;4.45;;;8.40;87.50;;;;;;5052580;28;20029;-57
2022/01/04 02:03:39;;;;;;;6.63;4.82;;;8.30;87.50;;;;;;5038331;28;20120;-58
2022/01/04 02:06:05;;;;;;;5.63;4.30;;;8.40;87.50;;;;;;5052522;28;20099;-58
2022/01/04 02:08:31;;;;;;;5.20;4.30;;;8.40;87.40;;;;;;5052475;28;20237;-56
2022/01/04 02:10:58;;;;;;;4.63;4.10;;;8.30;87.30;;;;;;5051109;28;20109;-57
2022/01/04 02:13:25;;;;;;;5.35;4.10;;;8.30;87.30;;;;;;5044414;28;20095;-58
2022/01/04 02:15:52;;;;;;;4.90;4.10;;;8.30;87.30;;;;;;5052668;28;20461;-58
2022/01/04 02:18:18;;;;;;;5.53;4.40;;;8.30;87.20;;;;;;5052292;28;20079;-57
2022/01/04 02:20:43;;;;;;;5.97;5.18;;;8.30;87.20;;;;;;5052028;28;20045;-58
2022/01/04 02:23:09;;;;;;;5.57;4.43;;;8.30;87.30;;;;;;5052213;28;20388;-57
2022/01/04 02:25:35;;;;;;;4.70;4.07;;;8.30;87.40;;;;;;5044784;28;20026;-58
2022/01/04 02:28:01;;;;;;;5.55;4.30;;;8.30;87.50;;;;;;5046839;28;20104;-58
2022/01/04 02:30:27;;;;;;;5.93;4.90;;;8.30;87.60;;;;;;5048345;28;20537;-58
2022/01/04 02:32:53;;;;;;;4.95;4.22;;;8.30;87.60;;;;;;5042720;28;20108;-58
2022/01/04 02:35:22;;;;;;;5.38;4.30;;;8.30;87.60;;;;;;5047774;28;20427;-57
2022/01/04 02:37:48;;;;;;;6.57;4.50;;;8.30;87.70;;;;;;5055192;28;20040;-56
2022/01/04 02:40:14;;;;;;;6.13;4.40;;;8.30;87.70;;;;;;5054636;28;20028;-58
2022/01/04 02:42:40;;;;;;;8.75;5.45;;;8.30;87.60;;;;;;5055745;28;20029;-58
2022/01/04 02:45:08;;;;;;;5.55;4.22;;;8.30;87.60;;;;;;5054854;28;20040;-56
2022/01/04 02:47:34;;;;;;;6.28;4.00;;;8.20;87.60;;;;;;5048870;28;20031;-57
2022/01/04 02:50:00;;;;;;;4.28;3.88;;;8.20;87.70;;;;;;5055975;28;20057;-55
2022/01/04 02:52:27;;;;;;;5.50;3.92;;;8.20;87.80;;;;;;5055647;28;20032;-58
2022/01/04 02:54:53;;;;;;;4.38;3.67;;;8.20;87.90;;;;;;5055955;28;20468;-58
2022/01/04 02:57:19;;;;;;;4.55;4.05;;;8.20;87.90;;;;;;5054314;28;20021;-56
2022/01/04 02:59:45;;;;;;;6.22;4.47;;;8.20;88.00;;;;;;5055817;28;20025;-54
2022/01/04 03:02:10;;;;;;;5.57;4.32;;;8.20;88.40;;;;;;5052313;28;20045;-58
2022/01/04 03:04:36;;;;;;;6.07;4.43;;;8.20;88.40;;;;;;5043983;28;20025;-58
2022/01/04 03:07:03;;;;;;;4.72;3.90;;;8.10;88.50;;;;;;5055616;28;20105;-57
2022/01/04 03:09:29;;;;;;;6.47;4.10;;;8.20;88.60;;;;;;5055396;28;20024;-57
2022/01/04 03:11:56;;;;;;;6.45;5.32;;;8.20;88.60;;;;;;5055371;28;20377;-58
2022/01/04 03:14:22;;;;;;;5.35;4.70;;;8.10;88.90;;;;;;5055260;28;20021;-58
2022/01/04 03:16:48;;;;;;;5.28;4.63;;;8.10;89.00;;;;;;5055131;28;20110;-58
2022/01/04 03:19:14;;;;;;;5.97;4.85;;;8.10;88.90;;;;;;5055489;28;20033;-58
2022/01/04 03:21:42;;;;;;;6.75;5.40;;;8.10;89.10;;;;;;5052750;28;20064;-57
2022/01/04 03:24:10;;;;;;;7.88;5.72;;;8.10;89.30;;;;;;5055346;28;20568;-55
2022/01/04 03:26:36;;;;;;;7.78;5.13;;;8.10;89.60;;;;;;5055047;28;20024;-55
2022/01/04 03:29:05;;;;;;;6.30;5.30;;;8.10;89.70;;;;;;5055023;28;20021;-55
2022/01/04 03:31:31;;;;;;;8.20;5.65;;;8.10;89.70;;;;;;5051167;28;20017;-58
2022/01/04 03:33:57;;;;;;;5.65;5.05;;;8.10;89.80;;;;;;5053014;28;20029;-57
2022/01/04 03:36:24;;;;;;;5.50;4.80;;;8.10;89.70;;;;;;5055180;28;20029;-58
2022/01/04 03:38:51;;;;;;;6.10;5.50;;;8.10;89.60;;;;;;5048255;28;20025;-57
2022/01/04 03:41:17;;;;;;;7.45;4.88;;;8.10;89.70;;;;;;5054747;28;20033;-58
2022/01/04 03:43:43;;;;;;;5.88;5.00;;;8.10;89.90;;;;;;5054845;28;20029;-57
2022/01/04 03:46:09;;;;;;;5.68;4.38;;;8.10;89.90;;;;;;5042849;28;20079;-56
2022/01/04 03:48:36;;;;;;;5.32;4.35;;;8.10;89.80;;;;;;5038794;28;20021;-55
2022/01/04 03:51:03;;;;;;;6.13;4.97;;;8.10;89.80;;;;;;5053349;28;20017;-58
2022/01/04 03:53:29;;;;;;;6.47;5.25;;;8.10;89.80;;;;;;5041231;28;20120;-58
2022/01/04 03:55:55;;;;;;;7.15;5.28;;;8.10;89.80;;;;;;5052523;28;20114;-58
2022/01/04 03:58:20;;;;;;;5.80;4.80;;;8.10;89.70;;;;;;5054437;28;20472;-58
2022/01/04 04:00:46;;;;;;;6.28;4.97;;;8.10;89.60;;;;;;5054476;28;20033;-57
2022/01/04 04:03:12;;;;;;;5.03;4.53;;;8.00;89.50;;;;;;5054148;28;20033;-58
2022/01/04 04:05:38;;;;;;;4.97;4.15;;;8.00;89.40;;;;;;5054276;28;20020;-58
2022/01/04 04:08:04;;;;;;;4.72;4.22;;;8.00;89.60;;;;;;5054191;28;20032;-57
2022/01/04 04:10:30;;;;;;;5.53;4.43;;;7.90;89.70;;;;;;5054499;28;20025;-58
2022/01/04 04:12:55;;;;;;;6.20;5.03;;;7.90;89.80;;;;;;5051081;28;20063;-58
2022/01/04 04:15:21;;;;;;;5.88;4.53;;;7.90;89.90;;;;;;5054293;28;20108;-56
2022/01/04 04:17:47;;;;;;;4.43;3.95;;;7.90;90.00;;;;;;5054004;28;20103;-58
2022/01/04 04:20:13;;;;;;;5.38;4.43;;;7.90;90.00;;;;;;5053693;28;20100;-59
2022/01/04 04:22:40;;;;;;;5.18;4.68;;;7.90;90.00;;;;;;5053911;28;20071;-57
2022/01/04 04:25:07;;;;;;;5.25;4.70;;;7.90;90.10;;;;;;5054017;28;20024;-58
2022/01/04 04:27:32;;;;;;;5.32;4.82;;;7.90;90.10;;;;;;5053879;28;20023;-57
2022/01/04 04:29:58;;;;;;;6.65;4.80;;;7.90;90.10;;;;;;5047454;28;20108;-58
2022/01/04 04:32:25;;;;;;;5.10;4.57;;;7.90;90.00;;;;;;5053789;28;20079;-56
2022/01/04 04:34:50;;;;;;;5.45;4.22;;;7.90;89.90;;;;;;5053909;28;20029;-58
2022/01/04 04:37:16;;;;;;;4.78;3.70;;;7.90;89.90;;;;;;5042276;28;20025;-57
2022/01/04 04:39:42;;;;;;;4.53;4.05;;;7.90;89.80;;;;;;5039525;28;20047;-57
2022/01/04 04:42:08;;;;;;;5.22;4.38;;;7.90;89.80;;;;;;5044276;28;20078;-58
2022/01/04 04:44:33;;;;;;;5.68;4.20;;;8.00;89.70;;;;;;5051043;28;20039;-57
2022/01/04 04:46:59;;;;;;;5.85;4.60;;;8.00;89.80;;;;;;5046034;28;20020;-57
2022/01/04 04:49:25;;;;;;;5.63;4.65;;;8.00;89.90;;;;;;5040026;28;20024;-55
2022/01/04 04:51:50;;;;;;;4.90;4.40;;;8.00;89.70;;;;;;5046760;28;20150;-57
2022/01/04 04:54:16;;;;;;;5.55;4.50;;;8.00;89.70;;;;;;5053323;28;20028;-58
2022/01/04 04:56:42;;;;;;;4.85;4.10;;;8.00;89.70;;;;;;5053274;28;20028;-57
2022/01/04 04:59:08;;;;;;;4.55;3.92;;;8.00;89.60;;;;;;5053188;28;20033;-58
2022/01/04 05:01:35;;;;;;;4.90;3.90;;;8.00;89.50;;;;;;5052545;28;20021;-58
2022/01/04 05:04:01;;;;;;;5.65;4.18;;;8.00;89.20;;;;;;5044222;28;20036;-58
2022/01/04 05:06:26;;;;;;;5.15;3.85;;;8.00;89.30;;;;;;5051875;28;20028;-58
2022/01/04 05:08:53;;;;;;;4.25;3.58;;;8.00;89.20;;;;;;5053039;28;20025;-57
2022/01/04 05:11:19;;;;;;;4.50;3.55;;;8.00;89.10;;;;;;5050986;28;20016;-57
2022/01/04 05:13:44;;;;;;;5.10;3.88;;;8.00;89.00;;;;;;5041260;28;20051;-57
2022/01/04 05:16:10;;;;;;;3.97;3.20;;;8.00;89.00;;;;;;5050934;28;20035;-57
2022/01/04 05:18:36;;;;;;;4.13;3.40;;;8.00;88.80;;;;;;5050256;28;20397;-58
2022/01/04 05:21:02;;;;;;;5.07;3.53;;;8.00;88.90;;;;;;5033746;28;20201;-58
2022/01/04 05:23:27;;;;;;;4.22;3.83;;;8.00;88.90;;;;;;5052846;28;20389;-58
2022/01/04 05:25:53;;;;;;;6.25;4.80;;;8.00;88.90;;;;;;5052936;28;20452;-57
2022/01/04 05:28:19;;;;;;;4.78;3.97;;;7.90;88.80;;;;;;5058927;28;20020;-58
2022/01/04 05:30:44;;;;;;;4.22;3.40;;;7.90;89.10;;;;;;5047852;28;20100;-58
2022/01/04 05:33:10;;;;;;;3.70;3.35;;;7.90;89.10;;;;;;5051685;28;20407;-56
2022/01/04 05:35:35;;;;;;;3.20;2.90;;;7.90;88.90;;;;;;5052832;28;20032;-58
2022/01/04 05:38:01;;;;;;;3.33;3.00;;;7.90;88.80;;;;;;5042462;28;20036;-58
2022/01/04 05:40:27;;;;;;;3.28;2.97;;;7.90;88.80;;;;;;5043775;28;20142;-58
2022/01/04 05:42:53;;;;;;;3.83;3.33;;;7.90;88.80;;;;;;5045208;28;20033;-55
2022/01/04 05:45:19;;;;;;;3.35;3.05;;;7.90;88.90;;;;;;5049476;28;20416;-58
2022/01/04 05:47:45;;;;;;;3.72;3.22;;;7.80;88.90;;;;;;5040233;28;20026;-58
2022/01/04 05:50:10;;;;;;;3.65;2.80;;;7.80;89.00;;;;;;5052636;28;20106;-58
2022/01/04 05:52:36;;;;;;;2.97;2.75;;;7.80;89.20;;;;;;5049495;28;20061;-58
2022/01/04 05:55:02;;;;;;;3.22;2.92;;;7.80;89.30;;;;;;5043930;28;20087;-58
2022/01/04 05:57:28;;;;;;;3.85;3.08;;;7.80;89.40;;;;;;5045522;28;20496;-54
2022/01/04 05:59:54;;;;;;;3.50;3.20;;;7.80;89.40;;;;;;5046807;28;20026;-58
2022/01/04 06:02:19;;;;;;;4.85;3.40;;;7.80;89.30;;;;;;5035430;28;20460;-57
2022/01/04 06:04:45;;;;;;;3.13;2.85;;;7.80;89.30;;;;;;5050449;28;20029;-58
2022/01/04 06:07:11;;;;;;;3.33;3.03;;;7.80;89.90;;;;;;5066719;28;20373;-58
2022/01/04 06:09:44;;;;;;;3.67;3.17;;;7.90;89.20;;;;;;5053457;28;20026;-57
2022/01/04 06:15:07;;;;;;;4.50;3.50;;;7.90;89.20;;;;;;5066290;28;20025;-58
2022/01/04 06:17:35;;;;;;;4.35;3.70;;;7.90;89.40;;;;;;5059402;28;20025;-58
2022/01/04 06:20:05;;;;;;;4.47;3.75;;;7.90;89.50;;;;;;5047849;28;20088;-58
2022/01/04 06:22:31;;;;;;;5.20;3.85;;;7.90;89.20;;;;;;5048005;28;20028;-58
2022/01/04 06:24:57;;;;;;;3.95;3.50;;;8.00;89.20;;;;;;5044179;28;20029;-56
2022/01/04 06:27:23;;;;;;;5.22;3.90;;;7.90;89.10;;;;;;5049924;28;20052;-58
2022/01/04 06:29:49;;;;;;;5.93;4.00;;;7.90;89.20;;;;;;5055550;28;20032;-64
2022/01/04 06:32:16;;;;;;;5.18;4.05;;;7.90;89.40;;;;;;5062113;28;20021;-64
2022/01/04 06:34:43;;;;;;;7.22;4.18;;;8.00;89.30;;;;;;5063439;28;20082;-64
2022/01/04 06:37:10;;;;;;;6.00;4.45;;;8.00;89.30;;;;;;5049148;28;20108;-64
2022/01/04 06:39:36;;;;;;;4.68;3.90;;;8.00;89.10;;;;;;5058584;28;20056;-64
2022/01/04 06:42:02;;;;;;;6.13;4.47;;;7.90;89.20;;;;;;5045061;28;20045;-64
2022/01/04 06:44:28;;;;;;;5.50;4.47;;;8.00;89.10;;;;;;5046352;28;20116;-56
2022/01/04 06:46:54;;;;;;;6.28;5.10;;;7.90;89.40;;;;;;5039899;28;20152;-58
2022/01/04 06:49:20;;;;;;;6.03;4.85;;;7.90;89.40;;;;;;5044694;28;20381;-58
2022/01/04 06:51:48;;;;;;;6.38;4.20;;;7.90;89.80;;;;;;5039477;28;20380;-58
2022/01/04 06:54:15;;;;;;;6.28;4.63;;;7.90;89.70;;;;;;5042450;28;20065;-58
2022/01/04 06:56:41;;;;;;;5.32;4.07;;;7.90;89.80;;;;;;5045204;28;20123;-58
2022/01/04 06:59:08;;;;;;;5.53;4.50;;;7.90;89.80;;;;;;5044804;28;20113;-58
2022/01/04 07:01:35;;;;;;;4.95;4.43;;;7.90;89.90;;;;;;5034890;28;20428;-58
2022/01/04 07:04:02;;;;;;;7.93;5.70;;;7.90;90.00;;;;;;5033521;28;20107;-58
2022/01/04 07:06:28;;;;;;;6.15;5.32;;;7.90;90.10;;;;;;5039049;28;20353;-58
2022/01/04 07:08:54;;;;;;;6.28;5.00;;;7.90;90.30;;;;;;5043660;28;20024;-57
2022/01/04 07:11:20;;;;;;;6.28;4.32;;;7.90;90.30;;;;;;5035139;28;20036;-61
2022/01/04 07:13:45;;;;;;;6.72;5.00;;;7.90;90.30;;;;;;5040010;28;20032;-59
2022/01/04 07:16:11;;;;;;;7.07;5.70;;;7.90;90.50;;;;;;5040353;28;20029;-60
2022/01/04 07:18:37;;;;;;;7.05;5.70;;;7.90;90.70;;;;;;5034647;28;20033;-59
2022/01/04 07:21:03;;;;;;;8.65;6.22;;;7.90;90.80;;;;;;5031364;28;20678;-60
2022/01/04 07:23:29;;;;;;;8.65;6.70;;;7.90;90.90;;;;;;5042676;28;21340;-60
2022/01/04 07:25:55;;;;;;;8.02;6.90;;;7.90;91.00;;;;;;5039843;28;20028;-60
2022/01/04 07:28:22;;;;;;;9.85;7.57;;;7.90;91.20;;;;;;5045202;28;20032;-60
2022/01/04 07:30:48;;;;;;;9.10;7.57;;;7.90;91.30;;;;;;5040503;28;20479;-60
2022/01/04 07:33:16;;;;;;;10.55;8.60;;;8.00;91.30;;;;;;5042456;28;20456;-59
2022/01/04 07:35:45;;;;;;;7.43;6.55;;;8.00;91.20;;;;;;5030718;28;21056;-60
2022/01/04 07:38:11;;;;;;;10.98;7.93;;;8.00;91.10;;;;;;5026331;28;20051;-60
2022/01/04 07:40:37;;;;;;;7.57;6.38;;;8.00;91.00;;;;;;5035359;28;20090;-58
2022/01/04 07:43:03;;;;;;;9.75;6.82;;;8.10;91.00;;;;;;5030402;28;20040;-60
2022/01/04 07:45:34;;;;;;;8.23;6.78;;;8.10;91.00;;;;;;5031977;28;20021;-58
2022/01/04 07:48:01;;;;;;;7.85;6.00;;;8.10;91.00;;;;;;5040747;28;20033;-60
2022/01/04 07:50:27;;;;;;;7.43;5.85;;;8.10;91.00;;;;;;5039544;28;20068;-60
2022/01/04 07:52:53;;;;;;;7.45;6.20;;;8.10;90.90;;;;;;5043067;28;20480;-61
2022/01/04 07:55:18;;;;;;;8.10;6.85;;;8.20;90.90;;;;;;5026420;28;20028;-60
2022/01/04 07:57:45;;;;;;;9.15;7.10;;;8.20;90.80;;;;;;5025885;28;20072;-61
2022/01/04 08:00:13;;;;;;;9.15;7.30;;;8.20;90.80;;;;;;5028178;28;20041;-62
2022/01/04 08:02:40;;;;;;;7.55;6.60;;;8.20;90.70;;;;;;5031689;28;20152;-61
2022/01/04 08:05:07;;;;;;;6.82;5.82;;;8.30;90.70;;;;;;5033193;28;20036;-61
2022/01/04 08:07:33;;;;;;;6.88;5.95;;;8.30;90.60;;;;;;5030251;28;20029;-60
2022/01/04 08:09:59;;;;;;;6.45;5.75;;;8.30;90.50;;;;;;5035558;28;20029;-59
2022/01/04 08:12:25;;;;;;;8.32;6.43;;;8.30;90.50;;;;;;5035473;28;20021;-58
2022/01/04 08:14:51;;;;;;;6.43;5.50;;;8.40;90.40;;;;;;5031453;28;21292;-60
2022/01/04 08:17:17;;;;;;;6.35;4.88;;;8.40;90.30;;;;;;5038916;28;20029;-61
2022/01/04 08:19:43;;;;;;;6.05;5.13;;;8.40;90.50;;;;;;5034630;28;20431;-60
2022/01/04 08:22:08;;;;;;;6.07;5.10;;;8.40;90.10;;;;;;5042089;28;20572;-59
2022/01/04 08:24:34;;;;;;;6.78;5.80;;;8.50;90.00;;;;;;5035997;28;20051;-60
2022/01/04 08:27:00;;;;;;;6.93;5.38;;;8.50;89.80;;;;;;5032462;28;20045;-61
2022/01/04 08:29:26;;;;;;;7.32;5.80;;;8.50;89.80;;;;;;5029298;28;20060;-59
2022/01/04 08:31:52;;;;;;;6.03;5.25;;;8.50;89.60;;;;;;5036459;28;20386;-59
2022/01/04 08:34:18;;;;;;;6.50;5.13;;;8.60;89.40;;;;;;5034717;28;20037;-60
2022/01/04 08:36:44;;;;;;;7.47;6.03;;;8.60;89.40;;;;;;5041720;28;20469;-59
2022/01/04 08:39:14;;;;;;;6.95;5.57;;;8.60;89.10;;;;;;5036939;28;20111;-60
2022/01/04 08:41:41;;;;;;;7.43;5.80;;;8.60;89.10;;;;;;5027740;28;20473;-59
2022/01/04 08:44:07;;;;;;;7.60;5.78;;;8.60;89.10;;;;;;5029902;28;20036;-61
2022/01/04 08:46:35;;;;;;;6.55;5.57;;;8.70;88.90;;;;;;5033328;28;20024;-57
2022/01/04 08:49:08;;;;;;;6.18;5.10;;;8.70;88.50;;;;;;5030968;28;20045;-60
2022/01/04 08:51:35;;;;;;;6.15;5.05;;;8.70;88.40;;;;;;5039282;28;20115;-61
2022/01/04 08:54:02;;;;;;;6.25;5.28;;;8.80;88.10;;;;;;5032126;28;20027;-60
2022/01/04 08:56:27;;;;;;;7.07;5.55;;;8.80;87.80;;;;;;5030498;28;20036;-61
2022/01/04 08:58:54;;;;;;;6.80;5.25;;;8.80;87.70;;;;;;5031989;28;20047;-60
2022/01/04 09:01:19;;;;;;;8.43;6.97;;;8.80;87.60;;;;;;5026237;28;20065;-58
2022/01/04 09:03:45;;;;;;;7.10;5.90;;;8.90;87.60;;;;;;5029282;28;20117;-58
2022/01/04 09:06:11;;;;;;;8.30;6.68;;;8.90;87.30;;;;;;5039229;28;20568;-58
2022/01/04 09:08:37;;;;;;;8.68;6.65;;;8.90;87.00;;;;;;5025544;28;20033;-60
2022/01/04 09:11:03;;;;;;;6.80;5.88;;;8.90;86.80;;;;;;5032569;28;20027;-60
2022/01/04 09:13:37;;;;;;;9.18;6.53;;;9.00;86.90;;;;;;5027381;28;20072;-60
2022/01/04 09:21:18;;;;;;;8.90;6.75;;;9.00;86.40;;;;;;5026829;28;20103;-60
2022/01/04 09:23:46;;;;;;;9.98;6.57;;;9.10;86.40;;;;;;5032881;28;20135;-62
2022/01/04 09:26:14;;;;;;;7.43;5.93;;;9.10;86.30;;;;;;5028675;28;20112;-61
2022/01/04 09:28:40;;;;;;;7.35;5.80;;;9.20;85.80;;;;;;5026183;28;20094;-60
2022/01/04 09:31:06;;;;;;;7.25;5.68;;;9.20;85.40;;;;;;5018767;28;20071;-60
2022/01/04 09:33:32;;;;;;;9.10;6.10;;;9.20;85.20;;;;;;5029584;28;20039;-60
2022/01/04 09:35:59;;;;;;;5.95;4.97;;;9.20;84.90;;;;;;5034159;28;20060;-60
2022/01/04 09:38:24;;;;;;;8.75;5.50;;;9.30;84.80;;;;;;5025150;28;20401;-59
2022/01/04 09:40:51;;;;;;;6.63;5.13;;;9.30;84.50;;;;;;5029533;28;20029;-59
2022/01/04 09:43:17;;;;;;;6.82;5.30;;;9.30;84.60;;;;;;5027729;28;20030;-59
2022/01/04 09:45:43;;;;;;;8.55;5.55;;;9.30;84.50;;;;;;5032180;28;20040;-60
2022/01/04 09:48:09;;;;;;;7.43;4.88;;;9.40;84.30;;;;;;5032501;28;20110;-61
2022/01/04 09:50:38;;;;;;;6.18;5.22;;;9.50;84.00;;;;;;5028850;28;20487;-59
2022/01/04 09:53:07;;;;;;;6.25;4.63;;;9.50;83.80;;;;;;5026389;28;20037;-59
2022/01/04 09:55:34;;;;;;;6.50;4.70;;;9.50;83.20;;;;;;5034474;28;20044;-59
2022/01/04 09:58:01;;;;;;;6.95;5.25;;;9.60;82.60;;;;;;5031820;28;20037;-59
2022/01/04 10:00:27;;;;;;;5.72;4.50;;;9.60;82.70;;;;;;5032114;28;20068;-59
2022/01/04 10:03:22;;;;;;;6.93;4.63;;;9.60;82.60;;;;;;5033143;28;20524;-59
2022/01/04 10:05:48;;;;;;;6.55;4.65;;;9.60;82.10;;;;;;5027356;28;20037;-62
2022/01/04 10:08:15;;;;;;;6.20;4.43;;;9.50;82.00;;;;;;5034456;28;20037;-61
2022/01/04 10:10:42;;;;;;;5.93;4.68;;;9.50;82.00;;;;;;5035283;28;20034;-62
2022/01/04 10:13:15;;;;;;;7.60;4.70;;;9.50;81.70;;;;;;5031383;28;20374;-61
2022/01/04 10:15:50;;;;;;;5.88;4.15;;;9.50;81.50;;;;;;5029012;28;20040;-61
2022/01/04 10:18:24;;;;;;;6.22;5.03;;;9.50;81.60;;;;;;5028976;28;20580;-60
2022/01/04 10:21:02;;;;;;;6.18;5.00;;;9.50;81.60;;;;;;5025170;28;20390;-61
2022/01/04 10:23:29;;;;;;;9.70;6.47;;;9.50;81.60;;;;;;5039104;28;20061;-59
2022/01/04 10:26:06;;;;;;;6.85;5.60;;;9.60;81.70;;;;;;5031497;28;20428;-58
2022/01/04 10:28:35;;;;;;;6.57;4.82;;;9.60;81.30;;;;;;5030976;28;20824;-60
2022/01/04 10:31:04;;;;;;;6.15;5.03;;;9.70;81.20;;;;;;5029012;28;20043;-62
2022/01/04 10:33:32;;;;;;;6.78;4.50;;;9.70;81.10;;;;;;5028790;28;20043;-61
2022/01/04 10:35:59;;;;;;;8.48;5.65;;;9.70;80.70;;;;;;5029447;28;20021;-61
2022/01/04 10:38:35;;;;;;;6.97;5.32;;;9.80;80.60;;;;;;5031353;28;20108;-61
2022/01/04 10:41:03;;;;;;;6.45;5.50;;;9.80;80.30;;;;;;5025786;28;20047;-60
2022/01/04 10:43:43;;;;;;;7.28;4.13;;;9.90;79.90;;;;;;5022320;28;20037;-59
2022/01/04 10:46:10;;;;;;;7.43;5.30;;;9.90;79.50;;;;;;5032281;28;20032;-59
2022/01/04 10:48:41;;;;;;;5.97;4.70;;;9.90;79.10;;;;;;5029211;28;20028;-60
2022/01/04 10:51:18;;;;;;;5.78;5.00;;;9.90;79.10;;;;;;5026401;28;20111;-60
2022/01/04 10:53:43;;;;;;;6.25;4.63;;;9.90;78.80;;;;;;5024900;28;20034;-59
2022/01/04 10:56:12;;;;;;;7.50;4.70;;;10.00;78.60;;;;;;5024982;28;20511;-59
2022/01/04 10:58:39;;;;;;;6.22;5.13;;;9.90;78.60;;;;;;5023306;28;20516;-58
2022/01/04 11:01:17;;;;;;;7.45;5.43;;;10.00;78.30;;;;;;5028821;28;20041;-60
2022/01/04 11:03:45;;;;;;;8.10;5.32;;;10.00;78.10;;;;;;5028481;28;20507;-58
2022/01/04 11:06:30;;;;;;;8.50;5.35;;;9.90;78.20;;;;;;5027970;28;20112;-61
2022/01/04 11:08:57;;;;;;;8.23;5.57;;;10.00;78.20;;;;;;5034203;28;20035;-59
2022/01/04 11:11:24;;;;;;;8.57;5.95;;;10.00;78.20;;;;;;5018854;28;20494;-58
2022/01/04 11:13:53;;;;;;;7.60;5.57;;;10.00;77.90;;;;;;5040196;28;20040;-60
2022/01/04 11:16:24;;;;;;;7.75;5.40;;;10.00;77.50;;;;;;5036215;28;20029;-60
2022/01/04 11:18:55;;;;;;;7.38;5.25;;;10.10;77.30;;;;;;5038661;28;20036;-60
2022/01/04 11:21:33;;;;;;;7.38;5.28;;;10.00;77.40;;;;;;5034670;28;20057;-59
2022/01/04 11:24:01;;;;;;;7.85;5.32;;;10.00;77.20;;;;;;5038297;28;20069;-59
2022/01/04 11:26:27;;;;;;;8.00;5.47;;;10.00;76.90;;;;;;5037825;28;20022;-58
2022/01/04 11:28:54;;;;;;;6.28;4.53;;;10.00;76.70;;;;;;5040735;28;20228;-59
2022/01/04 11:31:52;;;;;;;6.20;4.32;;;10.00;76.40;;;;;;5043735;28;20091;-58
2022/01/04 11:34:35;;;;;;;8.10;5.40;;;10.00;76.20;;;;;;5066466;28;20052;-59
2022/01/04 11:37:00;;;;;;;8.05;5.40;;;10.00;76.20;;;;;;5029190;28;20575;-60
2022/01/04 11:39:31;;;;;;;8.65;5.53;;;9.90;76.30;;;;;;5037460;28;20033;-59
2022/01/04 11:41:59;;;;;;;7.38;4.70;;;9.90;76.20;;;;;;5030243;28;20017;-59
2022/01/04 11:44:28;;;;;;;8.27;5.55;;;9.90;75.80;;;;;;5036606;28;20037;-59
2022/01/04 11:47:06;;;;;;;8.18;5.25;;;9.90;75.50;;;;;;5039301;28;20095;-59
2022/01/04 11:49:36;;;;;;;7.47;5.25;;;9.90;75.20;;;;;;5047986;28;20058;-59
2022/01/04 11:52:03;;;;;;;8.57;5.90;;;9.90;75.20;;;;;;5041161;28;20514;-60
2022/01/04 11:54:30;;;;;;;8.30;5.32;;;9.80;75.40;;;;;;5047661;28;20361;-58
2022/01/04 11:57:02;;;;;;;9.25;6.00;;;9.90;75.10;;;;;;5036656;28;20017;-59
2022/01/04 11:59:37;;;;;;;10.40;6.47;;;9.90;74.90;;;;;;5028472;28;20101;-60
2022/01/04 12:02:26;;;;;;;8.70;6.40;;;9.90;75.00;;;;;;5033485;28;20029;-59
2022/01/04 12:04:54;;;;;;;8.38;5.70;;;9.90;75.10;;;;;;5040336;28;20590;-61
2022/01/04 12:07:39;;;;;;;6.20;4.97;;;9.90;75.00;;;;;;5027180;28;20190;-61
2022/01/04 12:10:20;;;;;;;8.30;5.10;;;9.90;74.70;;;;;;5026815;28;20126;-61
2022/01/04 12:12:55;;;;;;;8.32;5.85;;;9.90;74.80;;;;;;5025897;28;20100;-60
2022/01/04 12:15:32;;;;;;;6.93;4.97;;;9.90;75.30;;;;;;5025596;28;20041;-60
2022/01/04 12:17:59;;;;;;;6.30;4.72;;;9.80;75.10;;;;;;5027832;28;20355;-60
2022/01/04 12:20:43;;;;;;;7.40;4.90;;;9.80;74.90;;;;;;5037865;28;20431;-61
2022/01/04 12:23:31;;;;;;;6.80;4.70;;;9.80;74.80;;;;;;5033166;28;20041;-60
2022/01/04 12:26:03;;;;;;;9.63;5.15;;;9.80;74.70;;;;;;5035699;28;20120;-62
2022/01/04 12:28:40;;;;;;;8.73;4.88;;;9.70;74.90;;;;;;5043346;28;20086;-61
2022/01/04 12:31:20;;;;;;;8.05;5.18;;;9.70;75.00;;;;;;5021588;28;20057;-60
2022/01/04 12:33:53;;;;;;;7.68;5.07;;;9.60;75.00;;;;;;5029824;28;20038;-61
2022/01/04 12:36:41;;;;;;;6.43;4.60;;;9.60;74.90;;;;;;5026506;28;20029;-61
2022/01/04 12:39:34;;;;;;;6.93;4.88;;;9.50;74.70;;;;;;5030535;28;20037;-61
2022/01/04 12:42:00;;;;;;;7.20;5.78;;;9.40;74.80;;;;;;5029583;28;20049;-59
2022/01/04 12:44:29;;;;;;;7.57;4.95;;;9.40;75.10;;;;;;5018437;28;20044;-58
2022/01/04 12:46:55;;;;;;;7.75;4.55;;;9.40;75.10;;;;;;5020633;28;20043;-60
2022/01/04 12:49:24;;;;;;;8.77;5.55;;;9.30;75.00;;;;;;5034448;28;20034;-60
2022/01/04 12:51:55;;;;;;;7.25;5.47;;;9.30;75.10;;;;;;5028742;28;20036;-59
2022/01/04 12:54:25;;;;;;;6.43;5.05;;;9.30;75.20;;;;;;5028671;28;20032;-60
2022/01/04 12:56:57;;;;;;;8.05;5.50;;;9.30;75.50;;;;;;5024938;28;20642;-60
2022/01/04 12:59:23;;;;;;;6.97;5.55;;;9.30;75.40;;;;;;5026945;28;20027;-60
2022/01/04 13:01:50;;;;;;;9.32;5.95;;;9.20;75.50;;;;;;5031829;28;20029;-61
2022/01/04 13:04:21;;;;;;;6.63;5.03;;;9.30;75.70;;;;;;5023160;28;20065;-60
2022/01/04 13:06:47;;;;;;;6.47;4.60;;;9.30;75.50;;;;;;5029947;28;20033;-60
2022/01/04 13:09:18;;;;;;;9.27;4.95;;;9.20;75.30;;;;;;5028104;28;20133;-60
2022/01/04 13:11:48;;;;;;;8.55;5.50;;;9.20;75.30;;;;;;5030056;28;20079;-59